Time;durP1;ratioP1;P1;durP2;ratioP2;P2;SDS_P1;SDS_P2;PMS_P1;PMS_P2;Temp;Humidity;BMP_temperature;BMP_pressure;BME280_temperature;BME280_humidity;BME280_pressure;Samples;Min_cycle;Max_cycle;Signal;HPM_P1;HPM_P2
2023/09/02 00:00:18;;;;;;;7.97;7.18;;;;;;;18.81;58.16;95195.97;5072359;28;20065;-73
2023/09/02 00:02:43;;;;;;;7.35;6.63;;;;;;;18.81;58.25;95190.69;5090626;28;20134;-73
2023/09/02 00:05:08;;;;;;;8.05;7.13;;;;;;;18.61;58.50;95184.97;5090365;28;20489;-72
2023/09/02 00:07:34;;;;;;;7.57;6.88;;;;;;;18.69;58.04;95194.63;5056185;28;20142;-73
2023/09/02 00:09:59;;;;;;;7.90;7.20;;;;;;;18.53;58.10;95177.09;5071942;28;20405;-73
2023/09/02 00:12:25;;;;;;;7.93;7.15;;;;;;;18.59;57.92;95192.19;5071950;28;20039;-74
2023/09/02 00:14:50;;;;;;;7.97;7.28;;;;;;;18.58;58.06;95189.72;5072303;28;20493;-73
2023/09/02 00:17:15;;;;;;;7.93;7.22;;;;;;;18.30;58.20;95146.22;5086729;28;20032;-73
2023/09/02 00:19:43;;;;;;;7.90;7.20;;;;;;;18.41;58.55;95188.91;5088589;28;20024;-72
2023/09/02 00:22:08;;;;;;;7.85;7.13;;;;;;;18.53;59.98;95177.09;5072364;28;20036;-73
2023/09/02 00:24:34;;;;;;;8.25;7.50;;;;;;;18.55;59.93;95196.13;5074972;28;20028;-73
2023/09/02 00:26:59;;;;;;;8.35;7.55;;;;;;;18.53;59.67;95177.09;5088448;28;20097;-73
2023/09/02 00:29:24;;;;;;;7.22;6.60;;;;;;;18.18;59.18;95151.97;5093813;28;20020;-73
2023/09/02 00:31:50;;;;;;;8.00;7.15;;;;;;;18.16;59.23;95180.22;5092607;28;20058;-73
2023/09/02 00:34:15;;;;;;;7.68;6.93;;;;;;;18.21;59.43;95188.44;5087675;28;20487;-73
2023/09/02 00:36:41;;;;;;;8.77;7.88;;;;;;;17.99;59.72;95174.16;5055531;28;20036;-73
2023/09/02 00:39:06;;;;;;;8.23;7.53;;;;;;;17.91;59.90;95174.94;5073379;28;20036;-73
2023/09/02 00:41:37;;;;;;;8.38;7.50;;;;;;;17.96;60.04;95190.25;5077526;28;20024;-73
2023/09/02 00:44:02;;;;;;;8.05;7.25;;;;;;;18.10;60.51;95189.59;5087030;28;20040;-73
2023/09/02 00:46:28;;;;;;;8.10;7.30;;;;;;;18.05;61.29;95197.13;5079925;28;20039;-73
2023/09/02 00:48:53;;;;;;;7.90;7.20;;;;;;;18.10;60.60;95192.22;5059550;28;20028;-73
2023/09/02 00:51:19;;;;;;;7.68;6.88;;;;;;;18.05;60.35;95190.09;5081737;28;20024;-73
2023/09/02 00:53:45;;;;;;;7.80;7.05;;;;;;;17.97;60.06;95176.94;5082103;28;20097;-73
2023/09/02 00:56:13;;;;;;;7.47;6.78;;;;;;;17.97;60.49;95197.97;5075118;28;20051;-73
2023/09/02 00:58:39;;;;;;;7.72;6.97;;;;;;;17.86;60.00;95185.16;5075572;28;20028;-73
2023/09/02 01:01:05;;;;;;;7.43;6.72;;;;;;;17.89;59.82;95186.66;5090406;28;20032;-73
2023/09/02 01:03:31;;;;;;;7.40;6.70;;;;;;;17.92;59.95;95191.56;5075286;28;20053;-73
2023/09/02 01:05:56;;;;;;;7.35;6.65;;;;;;;17.87;59.99;95189.41;5091912;28;20032;-74
2023/09/02 01:08:22;;;;;;;10.15;7.50;;;;;;;17.89;59.76;95190.09;5075015;28;20040;-73
2023/09/02 01:10:47;;;;;;;7.03;6.32;;;;;;;17.93;60.24;95190.56;5087979;28;20078;-72
2023/09/02 01:13:13;;;;;;;7.63;6.82;;;;;;;17.86;60.06;95191.22;5071230;28;20044;-72
2023/09/02 01:15:38;;;;;;;8.35;6.78;;;;;;;17.95;59.75;95185.97;5038251;28;20106;-72
2023/09/02 01:18:04;;;;;;;7.60;6.90;;;;;;;17.78;59.90;95188.59;5072763;28;20089;-73
2023/09/02 01:20:47;;;;;;;7.05;6.38;;;;;;;17.71;59.97;95170.97;5059609;28;20442;-73
2023/09/02 01:23:45;;;;;;;8.00;7.20;;;;;;;17.78;59.98;95188.59;5059939;28;20040;-73
2023/09/02 01:27:02;;;;;;;7.50;6.72;;;;;;;17.64;59.95;95162.94;5072896;28;20037;-73
2023/09/02 01:29:27;;;;;;;7.60;6.88;;;;;;;17.92;60.03;95188.94;5071783;28;20055;-73
2023/09/02 01:31:53;;;;;;;8.38;7.22;;;;;;;17.65;60.39;95177.69;5074512;28;20020;-73
2023/09/02 01:34:18;;;;;;;7.72;7.03;;;;;;;17.42;61.33;95186.19;5073594;28;20036;-73
2023/09/02 01:36:46;;;;;;;7.60;6.90;;;;;;;17.58;60.73;95205.59;5054933;28;20036;-73
2023/09/02 01:39:12;;;;;;;7.72;6.93;;;;;;;17.19;61.00;95158.88;5087412;28;20032;-73
2023/09/02 01:41:37;;;;;;;7.30;6.60;;;;;;;17.24;61.46;95190.72;5087506;28;20024;-73
2023/09/02 01:44:03;;;;;;;8.00;7.20;;;;;;;17.05;61.49;95172.59;5076739;28;20028;-73
2023/09/02 01:46:28;;;;;;;7.47;6.78;;;;;;;17.17;61.95;95202.84;5072718;28;20028;-73
2023/09/02 01:48:54;;;;;;;7.80;7.00;;;;;;;17.29;61.63;95204.19;5076437;28;20028;-73
2023/09/02 01:51:19;;;;;;;9.90;7.32;;;;;;;17.33;61.55;95200.28;5055145;28;20032;-73
2023/09/02 01:53:44;;;;;;;7.63;6.93;;;;;;;17.23;61.64;95186.44;5086083;28;20037;-73
2023/09/02 01:56:10;;;;;;;6.82;6.18;;;;;;;17.55;61.75;95209.38;5081300;28;20442;-73
2023/09/02 01:58:35;;;;;;;7.70;6.90;;;;;;;17.35;62.23;95206.16;5053936;28;20093;-72
2023/09/02 02:01:01;;;;;;;7.43;6.72;;;;;;;17.30;62.32;95210.25;5071429;28;20036;-72
2023/09/02 02:03:43;;;;;;;7.43;6.72;;;;;;;17.31;62.29;95212.72;5070333;28;20044;-72
2023/09/02 02:06:11;;;;;;;7.70;6.90;;;;;;;17.33;62.35;95204.72;5071712;28;20430;-73
2023/09/02 02:08:45;;;;;;;8.52;7.05;;;;;;;17.26;61.80;95187.94;5062894;28;20498;-72
2023/09/02 02:11:11;;;;;;;7.85;7.10;;;;;;;17.17;62.83;95205.47;5062274;28;20056;-73
2023/09/02 02:13:38;;;;;;;7.13;6.43;;;;;;;17.08;62.85;95198.53;5072295;28;20430;-72
2023/09/02 02:16:04;;;;;;;7.50;6.72;;;;;;;17.16;62.91;95198.56;5078822;28;20028;-73
2023/09/02 02:18:29;;;;;;;7.55;6.85;;;;;;;17.16;62.77;95206.44;5073730;28;20120;-73
2023/09/02 02:21:02;;;;;;;9.55;7.07;;;;;;;17.07;62.48;95195.06;5064092;28;20024;-73
2023/09/02 02:23:28;;;;;;;7.20;6.50;;;;;;;16.99;62.32;95208.16;5079456;28;20036;-73
2023/09/02 02:26:01;;;;;;;7.63;6.85;;;;;;;16.87;63.01;95219.91;5090368;28;20429;-72
2023/09/02 02:28:27;;;;;;;8.15;7.32;;;;;;;16.77;63.46;95224.44;5074108;28;20036;-73
2023/09/02 02:30:52;;;;;;;8.55;7.63;;;;;;;16.65;63.82;95215.97;5090341;28;20024;-73
2023/09/02 02:33:17;;;;;;;8.18;6.57;;;;;;;16.42;64.03;95206.00;5078436;28;20040;-73
2023/09/02 02:35:43;;;;;;;8.00;7.20;;;;;;;16.50;64.55;95220.97;5053377;28;20074;-73
2023/09/02 02:38:08;;;;;;;7.90;7.10;;;;;;;16.39;64.39;95201.06;5053344;28;20101;-73
2023/09/02 02:40:34;;;;;;;8.13;7.32;;;;;;;16.40;64.13;95200.06;5053470;28;20372;-73
2023/09/02 02:42:59;;;;;;;7.82;7.13;;;;;;;16.25;63.86;95175.41;5073233;28;20051;-73
2023/09/02 02:45:24;;;;;;;7.55;6.85;;;;;;;16.64;63.76;95217.78;5091297;28;20028;-73
2023/09/02 02:47:50;;;;;;;7.80;7.00;;;;;;;16.49;64.04;95212.28;5091435;28;20058;-72
2023/09/02 02:50:15;;;;;;;7.85;6.93;;;;;;;16.64;63.98;95209.09;5089092;28;20054;-73
2023/09/02 02:52:41;;;;;;;7.55;6.85;;;;;;;16.73;63.86;95216.84;5090036;28;20516;-72
2023/09/02 02:55:07;;;;;;;7.93;7.13;;;;;;;16.70;64.10;95216.34;5090202;28;20027;-72
2023/09/02 02:57:32;;;;;;;8.00;6.97;;;;;;;16.63;64.14;95212.69;5091173;28;20497;-73
2023/09/02 02:59:57;;;;;;;7.30;6.60;;;;;;;16.46;64.18;95217.00;5088504;28;20024;-72
2023/09/02 03:02:23;;;;;;;7.50;6.80;;;;;;;16.41;64.42;95220.09;5089657;28;20043;-73
2023/09/02 03:04:48;;;;;;;7.65;6.90;;;;;;;16.26;65.05;95222.41;5089798;28;20039;-73
2023/09/02 03:07:14;;;;;;;8.15;7.35;;;;;;;16.19;65.33;95228.44;5072891;28;20032;-73
2023/09/02 03:09:40;;;;;;;7.78;6.97;;;;;;;16.13;65.97;95227.25;5078688;28;20118;-74
2023/09/02 03:12:06;;;;;;;8.40;7.25;;;;;;;16.11;65.67;95212.66;5052830;28;20055;-73
2023/09/02 03:14:32;;;;;;;8.50;7.70;;;;;;;16.20;66.00;95235.31;5069665;28;20407;-73
2023/09/02 03:16:57;;;;;;;7.93;7.13;;;;;;;16.18;65.94;95235.47;5070820;28;20043;-73
2023/09/02 03:19:22;;;;;;;7.78;7.07;;;;;;;16.08;66.06;95235.56;5064090;28;20082;-73
2023/09/02 03:21:48;;;;;;;7.60;6.85;;;;;;;16.06;66.15;95234.88;5085443;28;20497;-72
2023/09/02 03:24:13;;;;;;;8.20;7.40;;;;;;;15.91;66.28;95232.91;5088621;28;20035;-72
2023/09/02 03:26:39;;;;;;;7.78;7.03;;;;;;;15.91;66.65;95232.91;5086525;28;20021;-72
2023/09/02 03:29:04;;;;;;;7.65;6.85;;;;;;;15.79;67.02;95227.09;5078106;28;20032;-73
2023/09/02 03:31:29;;;;;;;8.25;7.45;;;;;;;15.71;66.93;95224.38;5089073;28;20028;-72
2023/09/02 03:33:55;;;;;;;8.43;7.63;;;;;;;15.48;67.75;95229.19;5061515;28;20036;-72
2023/09/02 03:36:20;;;;;;;8.25;7.45;;;;;;;15.50;67.79;95232.50;5089226;28;20051;-72
2023/09/02 03:38:46;;;;;;;8.38;7.57;;;;;;;15.57;67.27;95220.44;5076403;28;20025;-73
2023/09/02 03:41:12;;;;;;;8.18;7.38;;;;;;;15.61;67.48;95232.28;5052567;28;20474;-73
2023/09/02 03:43:37;;;;;;;8.63;7.43;;;;;;;15.56;67.76;95222.25;5052723;28;20032;-72
2023/09/02 03:46:03;;;;;;;9.77;7.80;;;;;;;15.44;67.67;95222.63;5086955;28;20036;-72
2023/09/02 03:48:28;;;;;;;8.75;7.88;;;;;;;15.47;68.06;95223.13;5089490;28;20028;-72
2023/09/02 03:51:03;;;;;;;8.57;7.65;;;;;;;15.53;68.39;95227.78;5058354;28;20036;-72
2023/09/02 03:53:29;;;;;;;8.65;7.75;;;;;;;15.34;68.62;95212.19;5074132;28;20032;-72
2023/09/02 03:55:54;;;;;;;8.10;7.30;;;;;;;15.37;68.49;95219.75;5089384;28;20107;-74
2023/09/02 03:58:20;;;;;;;8.27;7.47;;;;;;;15.40;68.33;95233.34;5072554;28;20081;-73
2023/09/02 04:00:45;;;;;;;7.88;7.07;;;;;;;15.27;68.04;95196.25;5072502;28;20049;-73
2023/09/02 04:03:12;;;;;;;7.40;6.70;;;;;;;15.53;68.06;95235.63;5063729;28;20043;-73
2023/09/02 04:05:38;;;;;;;8.32;7.53;;;;;;;15.64;67.90;95232.81;5089577;28;20157;-73
2023/09/02 04:08:04;;;;;;;7.47;6.68;;;;;;;15.63;67.14;95219.88;5072519;28;20509;-72
2023/09/02 04:10:30;;;;;;;7.38;6.68;;;;;;;15.75;67.33;95238.84;5073021;28;20037;-74
2023/09/02 04:12:56;;;;;;;8.18;7.38;;;;;;;15.56;66.90;95213.56;5087554;28;20055;-73
2023/09/02 04:15:21;;;;;;;8.00;7.15;;;;;;;15.85;66.21;95235.19;5092949;28;20407;-73
2023/09/02 04:17:47;;;;;;;7.07;6.32;;;;;;;15.93;66.16;95239.66;5076032;28;20032;-73
2023/09/02 04:20:12;;;;;;;7.70;6.68;;;;;;;15.96;65.76;95241.16;5091308;28;20035;-72
2023/09/02 04:22:37;;;;;;;8.27;7.13;;;;;;;16.04;65.72;95243.84;5075733;28;20185;-73
2023/09/02 04:25:03;;;;;;;6.93;6.22;;;;;;;16.09;66.32;95231.94;5092765;28;20028;-72
2023/09/02 04:27:29;;;;;;;7.88;7.07;;;;;;;16.26;67.21;95242.56;5061108;28;20079;-73
2023/09/02 04:29:54;;;;;;;7.57;6.88;;;;;;;16.11;66.71;95212.66;5074974;28;20060;-73
2023/09/02 04:32:20;;;;;;;7.95;7.15;;;;;;;16.24;66.04;95239.28;5072305;28;20044;-73
2023/09/02 04:34:46;;;;;;;7.95;7.15;;;;;;;16.11;66.05;95241.47;5090151;28;20032;-72
2023/09/02 04:37:11;;;;;;;7.90;7.05;;;;;;;16.15;66.43;95242.81;5079850;28;20039;-73
2023/09/02 04:39:40;;;;;;;7.78;6.97;;;;;;;16.05;66.49;95230.63;5080892;28;20032;-74
2023/09/02 04:42:05;;;;;;;8.35;7.38;;;;;;;16.25;66.45;95247.00;5083571;28;20036;-73
2023/09/02 04:44:31;;;;;;;7.97;7.18;;;;;;;16.28;66.61;95245.88;5074003;28;20086;-73
2023/09/02 04:46:56;;;;;;;7.90;7.10;;;;;;;16.29;66.31;95247.50;5074355;28;20031;-72
2023/09/02 04:49:22;;;;;;;8.40;7.50;;;;;;;16.20;66.79;95237.94;5082827;28;20037;-72
2023/09/02 04:51:48;;;;;;;7.47;6.78;;;;;;;16.39;66.75;95240.38;5072030;28;20036;-74
2023/09/02 04:54:14;;;;;;;7.53;6.70;;;;;;;16.40;66.48;95249.06;5086901;28;20035;-73
2023/09/02 04:56:39;;;;;;;7.82;6.85;;;;;;;16.52;66.53;95259.19;5073820;28;20060;-73
2023/09/02 04:59:05;;;;;;;7.95;7.07;;;;;;;16.61;65.92;95261.88;5075140;28;20417;-74
2023/09/02 05:01:30;;;;;;;8.32;7.50;;;;;;;16.69;66.50;95262.75;5075479;28;20129;-74
2023/09/02 05:03:56;;;;;;;8.40;7.60;;;;;;;16.84;66.29;95251.72;5075143;28;20036;-73
2023/09/02 05:06:21;;;;;;;8.57;7.68;;;;;;;17.29;65.02;95264.56;5070828;28;20225;-73
2023/09/02 05:08:46;;;;;;;8.57;7.78;;;;;;;17.51;63.52;95255.31;5071782;28;20040;-73
2023/09/02 05:11:12;;;;;;;8.63;7.60;;;;;;;17.64;63.69;95253.06;5075598;28;20493;-74
2023/09/02 05:13:37;;;;;;;8.52;7.15;;;;;;;17.91;63.49;95250.34;5066005;28;20397;-74
2023/09/02 05:16:03;;;;;;;8.48;7.57;;;;;;;18.06;62.85;95260.06;5082050;28;20031;-74
2023/09/02 05:18:29;;;;;;;7.97;7.18;;;;;;;18.26;62.46;95265.84;5052561;28;20719;-73
2023/09/02 05:20:56;;;;;;;7.93;7.20;;;;;;;18.51;61.59;95257.97;5068273;28;20069;-74
2023/09/02 05:23:21;;;;;;;9.10;8.20;;;;;;;18.33;60.66;95254.66;5082181;28;20028;-74
2023/09/02 05:25:47;;;;;;;8.60;7.80;;;;;;;18.26;60.79;95265.84;5088725;28;20390;-74
2023/09/02 05:28:12;;;;;;;8.95;8.05;;;;;;;18.13;60.86;95260.25;5090347;28;20039;-73
2023/09/02 05:30:37;;;;;;;8.95;8.05;;;;;;;18.37;60.87;95256.00;5090640;28;20030;-74
2023/09/02 05:33:03;;;;;;;9.13;8.23;;;;;;;18.34;60.30;95246.63;5069360;28;20037;-73
2023/09/02 05:35:28;;;;;;;9.68;8.70;;;;;;;18.49;59.60;95241.53;5085901;28;20028;-73
2023/09/02 05:37:54;;;;;;;11.40;8.38;;;;;;;18.67;58.95;95257.16;5073518;28;20524;-71
2023/09/02 05:40:19;;;;;;;16.13;8.52;;;;;;;18.65;58.63;95249.41;5086753;28;20053;-73
2023/09/02 05:42:45;;;;;;;11.93;9.00;;;;;;;18.79;58.53;95262.91;5089544;28;20077;-74
2023/09/02 05:45:10;;;;;;;13.15;9.18;;;;;;;18.94;58.45;95256.81;5090438;28;20032;-75
2023/09/02 05:47:35;;;;;;;10.23;9.02;;;;;;;18.92;58.00;95250.06;5073547;28;20028;-75
2023/09/02 05:50:01;;;;;;;11.65;9.05;;;;;;;19.12;57.97;95271.56;5055824;28;20020;-75
2023/09/02 05:52:27;;;;;;;15.15;9.05;;;;;;;19.02;58.07;95253.31;5085174;28;20422;-75
2023/09/02 05:54:52;;;;;;;10.90;8.85;;;;;;;19.40;57.30;95264.06;5074394;28;20094;-75
2023/09/02 05:57:17;;;;;;;11.98;9.00;;;;;;;19.59;57.32;95266.31;5074270;28;20497;-74
2023/09/02 05:59:46;;;;;;;15.38;9.02;;;;;;;19.49;57.32;95273.56;5084867;28;20242;-75
2023/09/02 06:02:14;;;;;;;10.00;8.65;;;;;;;19.55;57.14;95272.06;5084615;28;20085;-81
2023/09/02 06:04:40;;;;;;;10.60;9.13;;;;;;;19.72;56.29;95278.13;5067060;28;20059;-74
2023/09/02 06:07:05;;;;;;;9.95;8.95;;;;;;;19.74;56.46;95270.88;5091434;28;20474;-74
2023/09/02 06:09:31;;;;;;;12.35;9.38;;;;;;;20.12;55.95;95278.91;5086739;28;20025;-74
2023/09/02 06:11:56;;;;;;;11.43;8.88;;;;;;;20.29;55.58;95286.53;5091052;28;20477;-72
2023/09/02 06:14:22;;;;;;;9.70;8.20;;;;;;;20.64;54.45;95278.22;5071902;28;20051;-74
2023/09/02 06:16:49;;;;;;;11.48;8.00;;;;;;;20.82;53.47;95281.38;5072655;28;20035;-76
2023/09/02 06:19:14;;;;;;;11.18;9.15;;;;;;;20.79;53.48;95283.53;5090421;28;20021;-73
2023/09/02 06:21:40;;;;;;;9.73;8.73;;;;;;;20.38;55.18;95283.84;5090017;28;20054;-71
2023/09/02 06:24:05;;;;;;;10.00;9.00;;;;;;;20.16;55.39;95290.75;5077679;28;20047;-72
2023/09/02 06:26:31;;;;;;;9.90;8.88;;;;;;;20.12;55.70;95290.28;5090151;28;20028;-70
2023/09/02 06:28:57;;;;;;;10.00;9.00;;;;;;;20.15;54.90;95265.38;5091335;28;20032;-73
2023/09/02 06:31:22;;;;;;;11.50;8.88;;;;;;;20.66;53.91;95290.22;5083599;28;20480;-74
2023/09/02 06:33:48;;;;;;;11.23;9.00;;;;;;;21.07;53.48;95286.41;5089042;28;20043;-72
2023/09/02 06:36:18;;;;;;;10.75;9.60;;;;;;;20.93;53.69;95285.41;5071599;28;20047;-75
2023/09/02 06:38:44;;;;;;;10.30;9.00;;;;;;;20.81;53.41;95279.72;5069454;28;20147;-73
2023/09/02 06:41:14;;;;;;;12.98;8.93;;;;;;;20.77;53.44;95277.63;5048862;28;20490;-72
2023/09/02 06:43:40;;;;;;;10.48;9.43;;;;;;;20.77;53.17;95283.72;5067404;28;20032;-73
2023/09/02 06:46:09;;;;;;;9.93;8.93;;;;;;;21.22;53.14;95291.69;5065239;28;20078;-75
2023/09/02 06:48:35;;;;;;;9.40;8.50;;;;;;;21.67;51.26;95277.50;5069955;28;20115;-75
2023/09/02 06:51:00;;;;;;;9.93;8.93;;;;;;;21.55;51.52;95281.63;5072436;28;20300;-78
2023/09/02 06:53:26;;;;;;;11.88;9.00;;;;;;;21.19;51.67;95261.19;5069040;28;20462;-79
2023/09/02 06:55:51;;;;;;;10.23;9.13;;;;;;;21.29;51.46;95282.06;5083187;28;20490;-78
2023/09/02 06:58:17;;;;;;;13.25;9.10;;;;;;;21.34;51.36;95277.03;5071735;28;20093;-78
2023/09/02 07:16:56;;;;;;;9.85;8.55;;;;;;;22.69;48.52;95266.78;5108567;27;20383;-77
2023/09/02 07:19:21;;;;;;;10.10;8.50;;;;;;;22.74;48.20;95268.88;5108707;28;20062;-77
2023/09/02 07:21:46;;;;;;;9.15;8.25;;;;;;;22.98;47.88;95272.94;5108638;28;20082;-77
2023/09/02 07:24:12;;;;;;;12.13;9.27;;;;;;;22.90;47.92;95270.41;5101515;28;20016;-77
2023/09/02 07:26:37;;;;;;;10.13;8.93;;;;;;;22.70;48.00;95260.47;5086895;28;20028;-77
2023/09/02 07:29:03;;;;;;;8.70;7.90;;;;;;;23.11;47.73;95267.75;5086940;28;20025;-77
2023/09/02 07:31:28;;;;;;;11.23;8.35;;;;;;;23.35;46.48;95266.47;5069899;28;20085;-77
2023/09/02 07:33:54;;;;;;;12.48;7.28;;;;;;;23.27;47.52;95263.19;5099824;28;20027;-77
2023/09/02 07:36:19;;;;;;;9.55;8.50;;;;;;;23.00;47.64;95249.75;5073159;28;20467;-77
2023/09/02 07:38:45;;;;;;;10.00;8.27;;;;;;;23.10;47.82;95260.00;5089976;28;20027;-77
2023/09/02 07:41:13;;;;;;;9.27;8.15;;;;;;;23.23;47.16;95269.88;5073140;28;20066;-77
2023/09/02 07:43:39;;;;;;;9.00;7.32;;;;;;;23.15;46.20;95249.63;5105709;28;20038;-79
2023/09/02 07:46:04;;;;;;;8.25;7.45;;;;;;;23.26;46.33;95258.88;5073574;28;20035;-78
2023/09/02 07:48:29;;;;;;;9.30;7.95;;;;;;;23.19;47.01;95259.66;5090205;28;20028;-78
2023/09/02 07:50:55;;;;;;;8.35;7.65;;;;;;;23.35;46.25;95253.22;5067491;28;20486;-78
2023/09/02 07:53:20;;;;;;;8.45;7.65;;;;;;;23.49;46.48;95263.91;5070392;28;20540;-77
2023/09/02 07:55:46;;;;;;;8.20;7.40;;;;;;;23.59;45.32;95262.50;5077149;28;20032;-76
2023/09/02 07:58:11;;;;;;;7.10;6.38;;;;;;;23.95;44.06;95263.31;5088264;28;20062;-79
2023/09/02 08:00:37;;;;;;;7.45;6.80;;;;;;;24.20;43.62;95260.94;5089134;28;20413;-77
2023/09/02 08:03:03;;;;;;;6.65;5.97;;;;;;;24.20;43.19;95260.94;5094780;28;20026;-76
2023/09/02 08:05:29;;;;;;;6.85;6.22;;;;;;;24.34;42.47;95264.44;5089670;28;20507;-77
2023/09/02 08:07:54;;;;;;;6.75;6.15;;;;;;;24.17;43.00;95264.81;5095490;28;20397;-76
2023/09/02 08:10:19;;;;;;;8.00;6.57;;;;;;;24.12;43.06;95261.94;5083686;28;20025;-77
2023/09/02 08:12:46;;;;;;;6.85;6.15;;;;;;;24.31;42.78;95273.63;5104038;28;20023;-76
2023/09/02 08:15:11;;;;;;;7.82;5.53;;;;;;;24.46;41.93;95271.66;5099655;28;20047;-77
2023/09/02 08:17:38;;;;;;;7.10;6.38;;;;;;;24.75;41.55;95270.44;5055461;28;20082;-77
2023/09/02 08:20:04;;;;;;;6.88;6.18;;;;;;;24.69;41.24;95262.47;5066345;28;20035;-76
2023/09/02 08:22:30;;;;;;;6.63;6.03;;;;;;;24.70;42.54;95262.25;5093745;28;20032;-76
2023/09/02 08:24:55;;;;;;;6.85;6.03;;;;;;;24.84;42.04;95271.03;5072592;28;20036;-76
2023/09/02 08:27:21;;;;;;;6.85;6.03;;;;;;;24.37;42.53;95264.84;5055753;28;20032;-77
2023/09/02 08:29:46;;;;;;;6.95;6.25;;;;;;;24.55;42.35;95274.09;5071243;28;20036;-76
2023/09/02 08:32:11;;;;;;;7.43;5.75;;;;;;;24.33;41.71;95228.31;5087987;28;20024;-77
2023/09/02 08:34:37;;;;;;;6.43;5.80;;;;;;;24.88;41.54;95264.31;5093065;28;20504;-75
2023/09/02 08:37:03;;;;;;;6.30;5.70;;;;;;;25.03;41.71;95250.00;5066987;28;20043;-75
2023/09/02 08:39:29;;;;;;;7.68;6.22;;;;;;;25.00;41.67;95239.78;5082718;28;20028;-74
2023/09/02 08:41:55;;;;;;;6.97;6.38;;;;;;;25.09;41.56;95259.78;5092963;28;20035;-74
2023/09/02 08:44:20;;;;;;;8.07;6.47;;;;;;;24.89;42.33;95252.66;5091591;28;20026;-75
2023/09/02 08:46:46;;;;;;;7.30;6.60;;;;;;;25.06;42.00;95249.56;5085800;28;20032;-75
2023/09/02 08:49:13;;;;;;;7.55;5.57;;;;;;;25.14;41.03;95257.34;5072083;28;20048;-75
2023/09/02 08:51:39;;;;;;;8.52;5.80;;;;;;;25.16;41.23;95239.38;5069396;28;20019;-75
2023/09/02 08:54:04;;;;;;;8.48;5.63;;;;;;;25.18;41.24;95248.78;5062668;28;20029;-76
2023/09/02 08:56:29;;;;;;;6.97;6.15;;;;;;;25.31;40.70;95255.91;5052532;28;20060;-75
2023/09/02 08:58:55;;;;;;;6.35;5.75;;;;;;;25.07;40.83;95235.25;5055863;28;20033;-76
2023/09/02 09:01:21;;;;;;;6.90;6.22;;;;;;;25.39;40.65;95253.00;5069895;28;20071;-76
2023/09/02 09:03:54;;;;;;;6.22;5.63;;;;;;;25.61;40.13;95258.06;5070734;28;20035;-76
2023/09/02 09:06:21;;;;;;;6.25;5.50;;;;;;;25.52;40.30;95214.94;5060202;28;20036;-77
2023/09/02 09:08:48;;;;;;;6.75;6.10;;;;;;;25.51;40.51;95236.41;5073400;28;20036;-76
2023/09/02 09:11:18;;;;;;;8.68;5.90;;;;;;;25.41;41.03;95232.34;5061229;28;20033;-76
2023/09/02 09:13:45;;;;;;;6.77;6.07;;;;;;;25.41;40.47;95248.31;5067059;28;20037;-77
2023/09/02 09:16:23;;;;;;;7.05;5.57;;;;;;;25.55;40.77;95249.09;5070948;28;20073;-78
2023/09/02 09:18:49;;;;;;;8.40;5.78;;;;;;;25.83;39.42;95243.50;5088480;28;20120;-77
2023/09/02 09:21:14;;;;;;;7.63;6.15;;;;;;;25.86;39.66;95234.28;5087411;28;20036;-76
2023/09/02 09:23:40;;;;;;;5.68;5.10;;;;;;;25.64;39.39;95236.38;5079111;28;20547;-76
2023/09/02 09:26:06;;;;;;;6.15;5.43;;;;;;;25.93;39.58;95231.56;5085963;28;20134;-73
2023/09/02 09:28:51;;;;;;;5.63;5.10;;;;;;;25.67;39.53;95235.94;5083545;28;20028;-77
2023/09/02 09:31:17;;;;;;;5.90;5.30;;;;;;;25.68;39.07;95240.22;5081905;28;20105;-77
2023/09/02 09:34:08;;;;;;;5.95;5.43;;;;;;;25.58;39.65;95227.41;5069087;28;20486;-76
2023/09/02 09:36:34;;;;;;;6.25;5.57;;;;;;;25.55;39.92;95221.69;5085759;28;20052;-78
2023/09/02 09:39:01;;;;;;;5.97;5.38;;;;;;;26.02;39.05;95222.28;5061698;28;20115;-77
2023/09/02 09:41:27;;;;;;;5.80;5.30;;;;;;;25.96;39.80;95213.31;5071285;28;20118;-77
2023/09/02 09:44:11;;;;;;;6.47;5.07;;;;;;;26.22;38.90;95207.03;5073390;28;20122;-77
2023/09/02 09:46:43;;;;;;;5.70;5.05;;;;;;;26.62;39.00;95214.78;5075354;28;20092;-77
2023/09/02 09:49:28;;;;;;;5.68;5.18;;;;;;;26.68;37.49;95197.09;5085304;28;20519;-77
2023/09/02 09:52:00;;;;;;;5.57;5.05;;;;;;;26.69;37.69;95207.56;5078760;28;20047;-78
2023/09/02 09:54:52;;;;;;;5.18;4.68;;;;;;;26.47;36.96;95208.94;5091546;28;20507;-77
2023/09/02 09:57:29;;;;;;;5.28;4.78;;;;;;;26.49;37.75;95209.50;5085189;28;20497;-75
2023/09/02 09:59:54;;;;;;;5.10;4.60;;;;;;;26.83;37.36;95202.09;5079982;28;20043;-76
2023/09/02 10:02:21;;;;;;;6.53;4.60;;;;;;;26.95;37.60;95192.34;5067481;28;20036;-75
2023/09/02 10:04:53;;;;;;;5.50;5.00;;;;;;;27.06;36.71;95202.28;5073519;28;20500;-76
2023/09/02 10:07:37;;;;;;;5.35;4.85;;;;;;;26.71;37.20;95204.66;5069465;28;20024;-76
2023/09/02 10:10:04;;;;;;;5.30;4.80;;;;;;;26.79;36.63;95201.72;5070096;28;20040;-76
2023/09/02 10:12:33;;;;;;;5.90;4.88;;;;;;;26.37;37.34;95177.44;5089249;28;20016;-76
2023/09/02 10:14:59;;;;;;;5.57;4.82;;;;;;;26.57;37.65;95208.47;5088175;28;20040;-75
2023/09/02 10:17:24;;;;;;;6.53;4.85;;;;;;;26.26;37.77;95199.44;5086853;28;20032;-76
2023/09/02 10:19:50;;;;;;;7.05;4.70;;;;;;;26.49;37.76;95186.38;5088113;28;20493;-76
2023/09/02 10:22:18;;;;;;;5.10;4.60;;;;;;;26.65;37.13;95162.91;5088205;28;20024;-76
2023/09/02 10:25:05;;;;;;;4.93;4.40;;;;;;;26.81;36.97;95188.19;5085219;28;20063;-76
2023/09/02 10:27:32;;;;;;;5.10;4.60;;;;;;;26.95;38.10;95187.03;5068935;28;20032;-76
2023/09/02 10:29:58;;;;;;;6.47;4.55;;;;;;;27.23;38.00;95180.41;5069955;28;20464;-76
2023/09/02 10:32:28;;;;;;;5.22;4.72;;;;;;;27.28;36.44;95183.25;5071093;28;20024;-76
2023/09/02 10:35:07;;;;;;;4.60;4.20;;;;;;;27.28;35.74;95188.56;5063445;28;20128;-76
2023/09/02 10:37:41;;;;;;;4.78;4.30;;;;;;;27.16;36.76;95181.31;5090037;28;20066;-76
2023/09/02 10:40:08;;;;;;;5.63;4.63;;;;;;;27.36;34.70;95174.94;5089841;28;20321;-76
2023/09/02 10:42:34;;;;;;;6.05;4.53;;;;;;;27.46;35.83;95177.88;5056375;28;20031;-76
2023/09/02 10:44:59;;;;;;;5.15;4.65;;;;;;;27.57;35.77;95176.31;5072144;28;20032;-76
2023/09/02 10:47:24;;;;;;;5.72;4.40;;;;;;;27.75;35.72;95173.63;5089920;28;20039;-76
2023/09/02 10:49:50;;;;;;;5.75;5.15;;;;;;;27.81;35.31;95174.63;5056353;28;20036;-76
2023/09/02 10:52:15;;;;;;;4.70;4.30;;;;;;;27.97;35.51;95170.47;5088396;28;20020;-76
2023/09/02 10:55:02;;;;;;;5.25;4.40;;;;;;;28.11;35.04;95169.28;5056253;28;20496;-76
2023/09/02 10:57:31;;;;;;;4.82;4.40;;;;;;;28.01;34.17;95169.81;5091004;28;20035;-76
2023/09/02 11:00:29;;;;;;;4.88;4.40;;;;;;;28.09;34.58;95175.88;5056270;28;20032;-76
2023/09/02 11:02:56;;;;;;;4.90;4.40;;;;;;;27.93;34.26;95142.63;5066221;28;20186;-76
2023/09/02 11:05:22;;;;;;;6.47;4.88;;;;;;;28.27;34.70;95167.78;5091009;28;20036;-76
2023/09/02 11:07:49;;;;;;;4.15;3.75;;;;;;;28.39;33.65;95157.13;5072788;28;20025;-75
2023/09/02 11:10:14;;;;;;;4.70;4.30;;;;;;;28.33;33.93;95164.19;5088581;28;20112;-76
2023/09/02 11:12:58;;;;;;;4.85;4.20;;;;;;;28.06;33.34;95163.81;5089740;28;20103;-76
2023/09/02 11:15:24;;;;;;;4.60;4.20;;;;;;;27.77;33.68;95162.72;5090686;28;20394;-75
2023/09/02 11:17:49;;;;;;;4.75;4.15;;;;;;;27.86;33.53;95156.06;5064856;28;20058;-74
2023/09/02 11:20:19;;;;;;;5.20;4.18;;;;;;;27.90;33.27;95159.09;5084212;28;20056;-75
2023/09/02 11:22:48;;;;;;;5.20;3.78;;;;;;;28.00;32.88;95156.66;5053341;28;20078;-74
2023/09/02 11:25:39;;;;;;;4.43;4.03;;;;;;;28.05;32.45;95152.31;5077217;28;20048;-71
2023/09/02 11:28:05;;;;;;;7.63;4.10;;;;;;;28.15;32.96;95157.09;5079613;28;20028;-74
2023/09/02 11:30:38;;;;;;;4.75;4.15;;;;;;;28.10;33.00;95148.13;5065110;28;20032;-74
2023/09/02 11:33:03;;;;;;;4.63;4.00;;;;;;;27.78;32.43;95145.69;5081293;28;20153;-73
2023/09/02 11:35:30;;;;;;;4.65;4.22;;;;;;;27.93;33.47;95151.44;5088884;28;20032;-73
2023/09/02 11:37:56;;;;;;;4.90;4.40;;;;;;;27.94;33.46;95138.91;5061969;28;20028;-73
2023/09/02 11:40:23;;;;;;;5.40;4.00;;;;;;;28.03;33.34;95143.72;5067683;28;20040;-73
2023/09/02 11:43:01;;;;;;;4.15;3.70;;;;;;;27.88;32.18;95137.97;5089758;28;20512;-73
2023/09/02 11:45:38;;;;;;;7.28;4.20;;;;;;;27.61;32.32;95132.16;5084043;28;20041;-72
2023/09/02 11:48:03;;;;;;;5.97;4.40;;;;;;;27.83;32.73;95140.50;5079058;28;20029;-73